Time;durP1;ratioP1;P1;durP2;ratioP2;P2;SDS_P1;SDS_P2;PMS_P1;PMS_P2;Temp;Humidity;BMP_temperature;BMP_pressure;BME280_temperature;BME280_humidity;BME280_pressure;Samples;Min_cycle;Max_cycle;Signal;HPM_P1;HPM_P2
2022/07/19 05:03:36;;;;;;;11.38;3.88;;;19.30;82.30;;;;;;4980329;23;20047;-71
2022/07/19 05:06:02;;;;;;;10.00;4.43;;;19.40;82.20;;;;;;4928324;29;20031;-73
2022/07/19 05:08:28;;;;;;;13.77;5.82;;;19.40;82.00;;;;;;4944978;29;20232;-71
2022/07/19 05:10:53;;;;;;;11.10;5.10;;;19.50;82.20;;;;;;4944533;29;20043;-70
2022/07/19 05:13:19;;;;;;;9.98;4.68;;;19.50;82.00;;;;;;4945363;29;20302;-73
2022/07/19 05:15:45;;;;;;;8.52;4.53;;;19.50;81.90;;;;;;4927286;29;20035;-72
2022/07/19 05:18:11;;;;;;;9.48;4.13;;;19.50;81.70;;;;;;4940786;29;20217;-72
2022/07/19 05:20:36;;;;;;;8.07;4.28;;;19.60;81.50;;;;;;4913937;29;20384;-71
2022/07/19 05:23:02;;;;;;;8.05;3.97;;;19.80;81.20;;;;;;4944766;29;20205;-72
2022/07/19 05:25:28;;;;;;;9.15;4.10;;;19.90;80.70;;;;;;4944876;29;20099;-71
2022/07/19 05:27:56;;;;;;;6.40;3.90;;;20.00;80.50;;;;;;4944298;29;20302;-72
2022/07/19 05:30:22;;;;;;;9.50;4.43;;;20.10;80.90;;;;;;4944075;29;20333;-71
2022/07/19 05:32:48;;;;;;;10.23;4.28;;;20.20;80.00;;;;;;4945063;29;20036;-71
2022/07/19 05:35:14;;;;;;;8.70;4.68;;;20.30;79.70;;;;;;4944190;29;20297;-73
2022/07/19 05:37:40;;;;;;;8.38;4.90;;;20.50;79.50;;;;;;4944591;29;20039;-72
2022/07/19 05:40:06;;;;;;;11.65;5.68;;;20.50;79.40;;;;;;4927525;29;20043;-73
2022/07/19 05:42:32;;;;;;;13.57;6.15;;;20.50;79.40;;;;;;4944858;29;20027;-75
2022/07/19 05:44:58;;;;;;;12.32;5.85;;;20.70;79.00;;;;;;4943613;29;20094;-73
2022/07/19 05:47:24;;;;;;;13.75;6.03;;;20.70;79.40;;;;;;4944824;29;20055;-70
2022/07/19 05:49:59;;;;;;;11.02;5.50;;;20.70;78.80;;;;;;4944600;29;20032;-75
2022/07/19 05:52:25;;;;;;;11.30;4.65;;;20.80;78.70;;;;;;4944825;29;20039;-73
2022/07/19 05:54:50;;;;;;;8.27;4.07;;;20.90;78.40;;;;;;4944751;29;20091;-73
2022/07/19 05:57:16;;;;;;;7.82;4.30;;;21.00;78.00;;;;;;4943949;29;20309;-72
2022/07/19 05:59:42;;;;;;;10.90;4.65;;;21.10;77.90;;;;;;4944887;29;20132;-73
2022/07/19 06:02:07;;;;;;;9.00;4.30;;;21.20;77.80;;;;;;4939836;29;20055;-72
2022/07/19 06:04:33;;;;;;;7.57;4.43;;;21.40;76.90;;;;;;4926062;29;20088;-73
2022/07/19 06:06:59;;;;;;;10.93;4.40;;;21.50;76.70;;;;;;4926562;29;20035;-70
2022/07/19 06:09:24;;;;;;;12.07;5.13;;;21.70;75.90;;;;;;4928031;29;20039;-70
2022/07/19 06:11:52;;;;;;;8.45;4.15;;;21.80;75.80;;;;;;4927818;29;20202;-70
2022/07/19 06:14:18;;;;;;;7.70;4.90;;;21.90;74.90;;;;;;4926766;29;20238;-71
2022/07/19 06:16:43;;;;;;;9.73;5.03;;;22.10;75.20;;;;;;4926367;29;20043;-69
2022/07/19 06:19:11;;;;;;;9.65;4.75;;;22.20;74.60;;;;;;4925464;29;20206;-72
2022/07/19 06:21:37;;;;;;;9.40;4.50;;;22.30;74.30;;;;;;4925159;29;20032;-69
2022/07/19 06:24:03;;;;;;;10.80;4.95;;;22.50;74.10;;;;;;4924900;29;20062;-71
2022/07/19 06:26:29;;;;;;;11.85;6.15;;;22.50;74.40;;;;;;4914308;29;20263;-71
2022/07/19 06:28:58;;;;;;;12.52;5.70;;;22.60;73.60;;;;;;4925208;29;20028;-76
2022/07/19 06:31:24;;;;;;;11.70;6.25;;;22.70;73.40;;;;;;4924595;29;20048;-74
2022/07/19 06:33:50;;;;;;;11.65;5.57;;;22.70;72.70;;;;;;4928797;29;20063;-73
2022/07/19 06:36:18;;;;;;;9.55;4.82;;;22.80;72.60;;;;;;4922450;29;20035;-73
2022/07/19 06:38:44;;;;;;;14.32;5.47;;;23.00;72.20;;;;;;4927900;29;20048;-72
2022/07/19 06:41:22;;;;;;;10.35;5.00;;;23.00;72.00;;;;;;4928114;29;20151;-79
2022/07/19 06:43:49;;;;;;;15.43;5.18;;;23.10;71.80;;;;;;4916604;29;20056;-71
2022/07/19 06:46:14;;;;;;;10.25;4.00;;;23.30;71.60;;;;;;4925004;29;20055;-73
2022/07/19 06:48:40;;;;;;;10.48;4.68;;;23.50;71.20;;;;;;4927167;29;20040;-72
2022/07/19 06:51:07;;;;;;;10.23;4.38;;;23.70;70.80;;;;;;4921130;29;20036;-71
2022/07/19 06:53:35;;;;;;;11.25;4.38;;;23.90;69.60;;;;;;4908432;29;20052;-72
2022/07/19 06:56:01;;;;;;;12.00;4.05;;;23.90;69.30;;;;;;4907920;29;20243;-74
2022/07/19 06:58:29;;;;;;;8.75;4.80;;;24.10;69.20;;;;;;4923697;29;20035;-72
2022/07/19 07:00:55;;;;;;;10.43;4.82;;;24.30;69.60;;;;;;4926446;29;20040;-73
2022/07/19 07:03:26;;;;;;;10.00;4.10;;;24.40;69.20;;;;;;4926837;29;20048;-76
2022/07/19 07:05:52;;;;;;;9.40;4.15;;;24.40;68.40;;;;;;4909856;29;20055;-74
2022/07/19 07:08:24;;;;;;;10.00;4.15;;;24.60;68.00;;;;;;4926657;29;20048;-70
2022/07/19 07:10:50;;;;;;;8.23;3.88;;;24.80;68.10;;;;;;4926725;29;20036;-72
2022/07/19 07:13:15;;;;;;;9.48;3.97;;;24.90;66.40;;;;;;4925134;29;20027;-70
2022/07/19 07:15:43;;;;;;;9.32;3.80;;;25.00;66.30;;;;;;4918477;29;20051;-72
2022/07/19 07:18:09;;;;;;;8.57;4.07;;;25.20;66.40;;;;;;4917278;29;20131;-72
2022/07/19 07:20:35;;;;;;;8.13;3.20;;;25.40;65.80;;;;;;4907913;29;20091;-73
2022/07/19 07:23:04;;;;;;;5.85;3.65;;;25.60;64.40;;;;;;4907615;29;20035;-74
2022/07/19 07:25:30;;;;;;;8.60;3.58;;;25.70;63.70;;;;;;4907836;29;20067;-73
2022/07/19 07:27:55;;;;;;;6.68;2.90;;;25.90;63.50;;;;;;4917653;29;20028;-73
2022/07/19 07:30:21;;;;;;;8.85;3.20;;;26.00;62.90;;;;;;4922793;29;20071;-73
2022/07/19 07:32:47;;;;;;;10.10;2.63;;;26.20;62.50;;;;;;4916359;29;20294;-72
2022/07/19 07:35:13;;;;;;;9.73;3.22;;;26.40;61.90;;;;;;4917872;29;20034;-74
2022/07/19 07:37:39;;;;;;;8.88;3.13;;;26.50;61.50;;;;;;4910402;29;20036;-75
2022/07/19 07:40:05;;;;;;;9.18;3.08;;;26.60;61.30;;;;;;4907268;29;20349;-74
2022/07/19 07:42:32;;;;;;;9.48;2.90;;;26.70;60.90;;;;;;4906905;29;20037;-73
2022/07/19 07:45:00;;;;;;;5.45;2.83;;;26.90;60.70;;;;;;4907383;29;20088;-74
2022/07/19 07:47:26;;;;;;;9.55;2.63;;;27.00;59.80;;;;;;4914333;29;20039;-74
2022/07/19 07:49:51;;;;;;;4.72;2.28;;;27.00;59.80;;;;;;4921147;29;20036;-74
2022/07/19 07:52:18;;;;;;;6.60;2.80;;;27.30;59.40;;;;;;4908533;29;20076;-74
2022/07/19 07:54:44;;;;;;;5.85;2.40;;;27.30;59.10;;;;;;4907190;29;20060;-75
2022/07/19 07:57:09;;;;;;;6.40;2.58;;;27.50;58.90;;;;;;4912063;29;20173;-73
2022/07/19 07:59:35;;;;;;;3.92;2.20;;;27.60;58.90;;;;;;4925813;29;20042;-72
2022/07/19 08:02:01;;;;;;;6.32;2.55;;;27.70;58.60;;;;;;4924448;29;20063;-74
2022/07/19 08:04:27;;;;;;;6.13;2.15;;;27.90;57.60;;;;;;4925642;29;20035;-77
2022/07/19 08:06:53;;;;;;;6.50;2.28;;;27.90;56.20;;;;;;4925650;29;20024;-73
2022/07/19 08:09:19;;;;;;;8.68;2.45;;;28.00;56.20;;;;;;4925478;29;20107;-74
2022/07/19 08:11:45;;;;;;;5.13;2.55;;;28.10;55.80;;;;;;4925777;29;20214;-74
2022/07/19 08:14:10;;;;;;;6.13;2.47;;;28.10;56.40;;;;;;4925087;29;20069;-72
2022/07/19 08:16:36;;;;;;;5.18;1.85;;;28.30;56.70;;;;;;4925086;29;20365;-75
2022/07/19 08:19:03;;;;;;;4.03;1.70;;;28.40;54.40;;;;;;4924976;29;20043;-74
2022/07/19 08:21:29;;;;;;;4.28;1.67;;;28.50;54.60;;;;;;4925789;29;20039;-72
2022/07/19 08:23:55;;;;;;;7.50;2.08;;;28.70;54.40;;;;;;4925475;29;20059;-73
2022/07/19 08:26:21;;;;;;;4.05;1.45;;;28.80;53.50;;;;;;4925091;29;20107;-71
2022/07/19 08:28:48;;;;;;;2.83;1.40;;;28.90;53.00;;;;;;4925389;29;20173;-72
2022/07/19 08:31:15;;;;;;;3.47;1.63;;;29.00;52.80;;;;;;4909966;29;20396;-73
2022/07/19 08:33:41;;;;;;;3.85;1.70;;;29.10;53.40;;;;;;4917333;29;20324;-72
2022/07/19 08:36:09;;;;;;;3.55;1.27;;;29.30;53.70;;;;;;4923342;29;20035;-72
2022/07/19 08:38:35;;;;;;;;;;;29.40;51.70;;;;;;4917018;29;20138;-73
2022/07/19 08:41:02;;;;;;;3.38;1.25;;;29.40;51.50;;;;;;4916641;29;20196;-73
2022/07/19 08:43:28;;;;;;;10.25;1.60;;;29.50;51.50;;;;;;4913772;29;20321;-73
2022/07/19 08:45:57;;;;;;;3.88;1.42;;;29.60;51.90;;;;;;4918510;29;20044;-73
2022/07/19 08:48:23;;;;;;;2.75;1.55;;;29.70;51.10;;;;;;4914338;29;20333;-73
2022/07/19 08:50:51;;;;;;;3.28;1.60;;;29.70;51.00;;;;;;4919507;29;20035;-72
2022/07/19 08:53:17;;;;;;;4.80;1.40;;;29.80;50.70;;;;;;4916637;29;20043;-73
2022/07/19 08:55:43;;;;;;;3.90;1.35;;;29.90;51.40;;;;;;4915391;29;20028;-72
2022/07/19 08:58:09;;;;;;;5.35;1.60;;;29.90;50.70;;;;;;4921852;29;20316;-72
2022/07/19 09:00:35;;;;;;;5.43;1.40;;;29.90;50.40;;;;;;4910425;29;20036;-71
2022/07/19 09:03:03;;;;;;;5.22;1.83;;;29.90;50.30;;;;;;4905836;29;20115;-72
2022/07/19 09:05:29;;;;;;;;;;;30.00;50.10;;;;;;4906772;29;20037;-73
2022/07/19 09:08:25;;;;;;;5.50;1.75;;;30.00;50.10;;;;;;4905886;29;19907;-73
2022/07/19 09:13:36;;;;;;;3.38;1.52;;;30.30;50.10;;;;;;4922782;29;20067;-73
2022/07/19 09:16:02;;;;;;;6.40;1.48;;;30.40;49.70;;;;;;4924478;29;20044;-73
2022/07/19 09:18:33;;;;;;;2.80;1.25;;;30.40;50.40;;;;;;4924047;29;20059;-72
2022/07/19 09:21:03;;;;;;;3.67;1.52;;;30.60;49.80;;;;;;4924760;29;20310;-72
2022/07/19 09:23:30;;;;;;;4.28;1.52;;;30.70;47.80;;;;;;4924879;29;20308;-71
2022/07/19 09:26:05;;;;;;;4.25;1.45;;;30.70;48.30;;;;;;4924449;29;20032;-73
2022/07/19 09:28:33;;;;;;;5.03;1.67;;;30.80;48.00;;;;;;4924343;29;20232;-72
2022/07/19 09:31:00;;;;;;;3.10;1.40;;;30.80;47.90;;;;;;4923880;29;20056;-72
2022/07/19 09:33:31;;;;;;;3.78;1.88;;;31.00;47.80;;;;;;4924195;29;20250;-73
2022/07/19 09:36:13;;;;;;;4.68;1.63;;;31.00;47.80;;;;;;4917746;29;20021;-71
2022/07/19 09:38:43;;;;;;;4.93;1.98;;;31.20;48.00;;;;;;4889096;29;20033;-71
2022/07/19 09:41:15;;;;;;;5.75;2.33;;;31.30;47.50;;;;;;4905297;29;20108;-72
2022/07/19 09:44:02;;;;;;;4.13;1.80;;;31.40;46.90;;;;;;4905937;29;20043;-73
2022/07/19 09:46:32;;;;;;;4.13;1.90;;;31.40;46.80;;;;;;4904642;29;20349;-72
2022/07/19 09:49:03;;;;;;;2.90;1.23;;;31.40;47.50;;;;;;4906131;29;20104;-77
2022/07/19 09:51:30;;;;;;;5.05;1.70;;;31.50;47.00;;;;;;4916159;29;20099;-71
2022/07/19 09:53:57;;;;;;;4.80;1.85;;;31.50;47.00;;;;;;4924616;29;20074;-72
2022/07/19 09:56:23;;;;;;;6.78;1.85;;;31.50;46.60;;;;;;4923962;29;20307;-75
2022/07/19 09:58:50;;;;;;;7.63;1.58;;;31.60;46.80;;;;;;4924031;29;20028;-73
2022/07/19 10:01:16;;;;;;;5.35;2.00;;;31.70;46.90;;;;;;4920627;29;20203;-72
2022/07/19 10:03:43;;;;;;;3.70;1.85;;;31.80;46.20;;;;;;4924372;29;20059;-72
2022/07/19 10:06:09;;;;;;;4.07;1.77;;;31.70;45.90;;;;;;4926531;29;20306;-71
2022/07/19 10:08:35;;;;;;;3.67;2.08;;;31.80;46.10;;;;;;4928526;29;20320;-70
2022/07/19 10:11:01;;;;;;;7.75;1.90;;;31.90;46.10;;;;;;4927015;29;20055;-76
2022/07/19 10:13:27;;;;;;;4.30;1.90;;;31.90;45.60;;;;;;4918051;29;20064;-74
2022/07/19 10:15:54;;;;;;;3.22;1.60;;;31.90;45.60;;;;;;4891898;29;20033;-73
2022/07/19 10:18:31;;;;;;;2.63;1.42;;;31.90;45.90;;;;;;4908599;29;20028;-74
2022/07/19 10:21:00;;;;;;;3.78;1.75;;;31.80;46.20;;;;;;4892882;29;20226;-72
2022/07/19 10:23:31;;;;;;;3.70;2.22;;;31.90;46.50;;;;;;4909266;29;20044;-72
2022/07/19 10:25:57;;;;;;;3.67;2.00;;;32.10;46.00;;;;;;4909196;29;20043;-71
2022/07/19 10:28:41;;;;;;;7.47;2.95;;;32.20;45.60;;;;;;4909046;29;20044;-75
2022/07/19 10:31:27;;;;;;;4.97;1.90;;;32.30;46.20;;;;;;4908596;29;20156;-75
2022/07/19 10:34:02;;;;;;;8.55;2.92;;;32.40;44.90;;;;;;4909083;29;20080;-75
2022/07/19 10:36:32;;;;;;;9.52;5.28;;;32.50;45.30;;;;;;4929334;29;20349;-73
2022/07/19 10:39:35;;;;;;;11.70;5.70;;;32.50;44.80;;;;;;4946980;29;20036;-72
2022/07/19 10:42:07;;;;;;;8.05;2.08;;;32.50;45.10;;;;;;4947417;29;20250;-74
2022/07/19 10:44:35;;;;;;;7.07;4.47;;;32.70;45.30;;;;;;4929878;29;20028;-75
2022/07/19 10:47:01;;;;;;;7.90;3.00;;;32.90;45.30;;;;;;4927240;29;20333;-74
2022/07/19 10:49:45;;;;;;;6.55;3.60;;;32.90;44.50;;;;;;4927136;29;20081;-74
2022/07/19 10:52:31;;;;;;;5.18;2.53;;;32.90;44.40;;;;;;4911004;29;20055;-74
2022/07/19 10:55:20;;;;;;;6.57;2.83;;;32.80;44.20;;;;;;4908619;29;20194;-74
2022/07/19 10:58:08;;;;;;;4.07;2.55;;;32.90;44.70;;;;;;4918907;29;20035;-73
2022/07/19 11:00:41;;;;;;;;;;;33.10;44.90;;;;;;4919231;29;20043;-76
2022/07/19 11:03:25;;;;;;;6.15;2.40;;;33.10;44.60;;;;;;4927451;29;19922;-73
2022/07/19 11:05:57;;;;;;;5.65;2.00;;;33.10;45.30;;;;;;4946343;29;20032;-74
2022/07/19 11:08:40;;;;;;;4.95;1.90;;;33.20;44.60;;;;;;4931210;29;20329;-74
2022/07/19 11:11:07;;;;;;;4.90;1.77;;;33.10;45.20;;;;;;4927517;29;20043;-73
2022/07/19 11:13:34;;;;;;;2.67;1.45;;;33.30;44.20;;;;;;4937856;29;20031;-75
2022/07/19 11:16:01;;;;;;;5.47;2.20;;;33.50;43.80;;;;;;4946053;29;20044;-73
2022/07/19 11:18:27;;;;;;;5.40;2.00;;;33.60;43.90;;;;;;4944761;29;20231;-74
2022/07/19 11:20:58;;;;;;;6.20;2.05;;;33.70;43.80;;;;;;4946278;29;20031;-74
2022/07/19 11:23:24;;;;;;;4.35;1.83;;;33.80;43.90;;;;;;4945890;29;20047;-73
2022/07/19 11:25:51;;;;;;;7.07;1.77;;;34.10;42.80;;;;;;4945335;29;20038;-74
2022/07/19 11:28:24;;;;;;;4.95;1.98;;;34.10;42.40;;;;;;4945779;29;20294;-75
2022/07/19 11:30:50;;;;;;;4.65;1.83;;;34.20;42.60;;;;;;4945642;29;20059;-73
2022/07/19 11:33:19;;;;;;;10.50;2.53;;;34.50;42.70;;;;;;4945756;29;20020;-72
2022/07/19 11:35:59;;;;;;;5.30;2.00;;;34.70;43.40;;;;;;4942153;29;20087;-74
2022/07/19 11:38:45;;;;;;;4.53;1.90;;;34.80;42.70;;;;;;4945820;29;20035;-72
2022/07/19 11:41:18;;;;;;;5.20;2.03;;;35.20;42.70;;;;;;4946185;29;20031;-72
2022/07/19 11:44:05;;;;;;;7.45;2.13;;;35.60;42.60;;;;;;4946181;29;20035;-73
2022/07/19 11:46:34;;;;;;;3.63;1.37;;;36.40;42.10;;;;;;4944998;29;20040;-74
2022/07/19 11:49:02;;;;;;;4.88;2.00;;;36.80;41.30;;;;;;4946135;29;20038;-74
2022/07/19 11:51:28;;;;;;;;;;;37.20;40.80;;;;;;4956603;29;20042;-75
2022/07/19 11:53:56;;;;;;;4.68;2.13;;;37.20;40.60;;;;;;4962713;29;20128;-73
2022/07/19 11:56:23;;;;;;;;;;;37.80;40.50;;;;;;4945426;29;20226;-74
2022/07/19 11:58:51;;;;;;;4.13;1.73;;;38.70;40.20;;;;;;4945661;29;19907;-74
2022/07/19 12:01:24;;;;;;;3.28;1.63;;;39.40;39.40;;;;;;4944797;29;20374;-73
2022/07/19 12:04:01;;;;;;;4.90;1.63;;;40.30;39.20;;;;;;4946099;29;20107;-74
2022/07/19 12:06:47;;;;;;;3.42;1.40;;;40.40;38.70;;;;;;4944898;29;20038;-75
2022/07/19 12:09:16;;;;;;;4.47;1.63;;;41.30;38.70;;;;;;4945448;29;20039;-74
2022/07/19 12:11:44;;;;;;;5.50;1.77;;;42.30;38.40;;;;;;4945410;29;20035;-74
2022/07/19 12:14:27;;;;;;;5.07;1.75;;;42.80;37.80;;;;;;4945624;29;20046;-73
2022/07/19 12:17:16;;;;;;;3.08;1.40;;;43.20;37.40;;;;;;4945283;29;20187;-73
2022/07/19 12:19:44;;;;;;;3.90;1.60;;;42.40;37.50;;;;;;4945375;29;20050;-75
2022/07/19 12:22:32;;;;;;;4.20;1.73;;;43.00;37.70;;;;;;4945104;29;20046;-74
2022/07/19 12:24:58;;;;;;;2.72;1.73;;;44.20;37.20;;;;;;4945345;29;20352;-73
2022/07/19 12:27:27;;;;;;;5.53;1.95;;;43.30;37.20;;;;;;4927997;29;20095;-74
2022/07/19 12:29:55;;;;;;;3.63;1.52;;;44.20;37.50;;;;;;4944825;29;20071;-74
2022/07/19 12:32:35;;;;;;;3.67;1.65;;;44.60;36.20;;;;;;4943143;29;20039;-74
2022/07/19 12:35:04;;;;;;;4.75;1.58;;;44.90;36.60;;;;;;4944867;29;20032;-75
2022/07/19 12:37:36;;;;;;;3.15;1.60;;;44.60;36.00;;;;;;4963118;29;20057;-75
2022/07/19 12:40:10;;;;;;;2.97;1.50;;;44.90;36.60;;;;;;4950284;29;20337;-74
2022/07/19 12:42:45;;;;;;;5.00;1.73;;;44.80;36.40;;;;;;4944157;29;20274;-75
2022/07/19 12:45:20;;;;;;;4.63;2.00;;;44.60;36.60;;;;;;4944210;29;20040;-75
2022/07/19 12:47:47;;;;;;;3.97;1.30;;;45.40;36.20;;;;;;4945108;29;20042;-74
2022/07/19 12:50:30;;;;;;;;;;;45.90;36.10;;;;;;4945406;29;20079;-74
2022/07/19 12:52:58;;;;;;;6.65;1.67;;;46.60;36.30;;;;;;4927697;29;20013;-73
2022/07/19 12:55:25;;;;;;;7.47;1.92;;;47.70;36.00;;;;;;4944081;29;20313;-73
2022/07/19 12:57:53;;;;;;;3.72;1.60;;;48.40;35.40;;;;;;4944306;29;20071;-72
2022/07/19 13:00:20;;;;;;;3.58;1.77;;;48.30;35.30;;;;;;4943264;29;20236;-74
2022/07/19 13:02:50;;;;;;;4.35;1.52;;;47.10;35.10;;;;;;4933262;29;20036;-74
2022/07/19 13:05:30;;;;;;;4.10;1.52;;;47.50;35.50;;;;;;4925669;29;20303;-75
2022/07/19 13:08:06;;;;;;;3.28;1.60;;;48.80;35.40;;;;;;4925693;29;20055;-74
2022/07/19 13:10:33;;;;;;;4.85;1.85;;;49.40;35.00;;;;;;4914574;29;20250;-79
2022/07/19 13:13:21;;;;;;;2.22;1.38;;;49.10;34.50;;;;;;4926146;29;20366;-82
2022/07/19 13:18:43;;;;;;;3.58;1.38;;;48.30;34.60;;;;;;4903997;29;20039;-79
2022/07/19 13:21:30;;;;;;;2.40;1.60;;;49.10;34.30;;;;;;4926117;29;20039;-82
2022/07/19 13:24:13;;;;;;;5.20;1.60;;;49.30;34.60;;;;;;4909809;29;20103;-81
2022/07/19 13:26:39;;;;;;;5.60;1.73;;;50.20;34.60;;;;;;4892310;29;20119;-80
2022/07/19 13:29:08;;;;;;;8.13;2.03;;;50.90;34.50;;;;;;4908578;29;20027;-80
2022/07/19 13:31:34;;;;;;;7.53;1.77;;;51.50;34.20;;;;;;4907667;29;20134;-81
2022/07/19 13:34:00;;;;;;;;;;;51.50;34.40;;;;;;4926148;29;20039;-79
2022/07/19 13:36:25;;;;;;;;;;;52.10;33.70;;;;;;4935951;29;19906;-78
2022/07/19 13:38:55;;;;;;;4.60;1.70;;;52.10;33.60;;;;;;4937750;29;20165;-75
2022/07/19 13:41:23;;;;;;;2.35;1.30;;;51.80;33.60;;;;;;4928659;29;20047;-73
2022/07/19 13:43:49;;;;;;;3.78;1.60;;;51.60;33.40;;;;;;4931326;29;20075;-73
2022/07/19 13:46:15;;;;;;;4.93;1.50;;;51.30;33.00;;;;;;4930250;29;20063;-73
2022/07/19 13:48:41;;;;;;;3.72;1.30;;;51.50;33.30;;;;;;4932268;29;20024;-73
2022/07/19 13:51:07;;;;;;;5.55;1.85;;;51.00;33.30;;;;;;4932049;29;20099;-74
2022/07/19 13:53:35;;;;;;;3.45;1.63;;;51.30;33.20;;;;;;4931172;29;20028;-73
2022/07/19 13:56:01;;;;;;;3.42;1.42;;;50.70;33.10;;;;;;4931745;29;20024;-73
2022/07/19 13:58:27;;;;;;;5.00;1.80;;;51.20;33.80;;;;;;4927651;29;20035;-75
2022/07/19 14:00:53;;;;;;;4.57;1.63;;;52.60;33.60;;;;;;4929274;29;20334;-73
2022/07/19 14:03:20;;;;;;;4.32;1.70;;;52.90;32.90;;;;;;4946407;29;20338;-73
2022/07/19 14:05:47;;;;;;;6.43;1.60;;;52.90;32.90;;;;;;4950632;29;20035;-74
2022/07/19 14:08:13;;;;;;;4.80;1.67;;;52.00;32.70;;;;;;4951189;29;20406;-73
2022/07/19 14:10:39;;;;;;;4.95;1.77;;;52.00;32.50;;;;;;4950691;29;20035;-72
2022/07/19 14:13:05;;;;;;;4.50;1.70;;;52.50;32.60;;;;;;4951233;29;20091;-73
2022/07/19 14:15:31;;;;;;;4.22;1.73;;;53.50;32.70;;;;;;4949726;29;20043;-72
2022/07/19 14:17:57;;;;;;;;;;;54.40;32.30;;;;;;4951358;29;20194;-73
2022/07/19 14:20:24;;;;;;;4.43;2.08;;;54.40;32.70;;;;;;4950724;29;19998;-73
2022/07/19 14:22:50;;;;;;;6.57;1.55;;;55.20;33.10;;;;;;4951203;29;20030;-74
2022/07/19 14:25:16;;;;;;;3.53;1.60;;;55.30;31.90;;;;;;4951791;29;20083;-74
2022/07/19 14:27:42;;;;;;;;;;;54.80;32.10;;;;;;4950945;29;20309;-74
2022/07/19 14:30:08;;;;;;;3.45;1.88;;;55.10;32.10;;;;;;4950415;29;19980;-75
2022/07/19 14:32:34;;;;;;;4.50;1.60;;;54.90;31.90;;;;;;4950000;29;20044;-72
2022/07/19 14:35:00;;;;;;;2.63;1.60;;;54.30;31.40;;;;;;4951304;29;20066;-73
2022/07/19 14:37:25;;;;;;;2.95;1.50;;;54.30;31.70;;;;;;4968999;29;20031;-74
2022/07/19 14:39:52;;;;;;;3.85;1.67;;;53.80;32.10;;;;;;4970511;28;20061;-73
2022/07/19 14:42:18;;;;;;;4.05;1.50;;;54.40;31.70;;;;;;4970313;28;20035;-74
2022/07/19 14:44:43;;;;;;;;;;;54.90;32.20;;;;;;4970750;28;20132;-74
2022/07/19 14:47:09;;;;;;;4.72;2.00;;;54.90;31.90;;;;;;4963197;28;20122;-73
2022/07/19 14:49:36;;;;;;;;;;;55.40;31.70;;;;;;4989382;28;20049;-73
2022/07/19 14:52:02;;;;;;;4.95;2.03;;;55.10;31.40;;;;;;4987044;28;19902;-73
2022/07/19 14:54:28;;;;;;;6.47;2.10;;;55.40;30.90;;;;;;4986331;28;20034;-74
2022/07/19 14:56:54;;;;;;;5.63;1.80;;;54.70;31.80;;;;;;4983015;28;20011;-73
2022/07/19 14:59:22;;;;;;;3.22;1.77;;;55.30;31.30;;;;;;4966500;29;20262;-73
2022/07/19 15:01:48;;;;;;;4.85;1.70;;;55.50;31.00;;;;;;4966211;29;20063;-72
2022/07/19 15:04:14;;;;;;;2.70;1.35;;;55.40;31.30;;;;;;4966689;29;20035;-73
2022/07/19 15:06:40;;;;;;;;;;;56.10;31.20;;;;;;4967243;29;20483;-75
2022/07/19 15:09:06;;;;;;;4.07;1.95;;;55.70;30.80;;;;;;4967226;29;19913;-73
2022/07/19 15:11:32;;;;;;;3.75;1.90;;;55.20;30.70;;;;;;4966324;29;20035;-74
2022/07/19 15:13:59;;;;;;;7.10;2.15;;;55.30;31.00;;;;;;4966843;29;20120;-74
2022/07/19 15:16:26;;;;;;;3.85;1.70;;;56.20;31.30;;;;;;4965725;28;20038;-73
2022/07/19 15:18:51;;;;;;;2.53;1.63;;;56.40;31.00;;;;;;4966385;29;20114;-72
2022/07/19 15:21:17;;;;;;;;;;;56.40;31.00;;;;;;4966999;29;20186;-72
2022/07/19 15:23:43;;;;;;;4.60;1.83;;;56.50;30.90;;;;;;4965983;29;19948;-73
2022/07/19 15:26:09;;;;;;;3.70;1.70;;;56.00;31.50;;;;;;4966963;29;20221;-73
2022/07/19 15:28:36;;;;;;;;;;;55.80;31.20;;;;;;4966455;29;20035;-72
2022/07/19 15:31:02;;;;;;;2.42;1.60;;;54.70;30.70;;;;;;4965485;28;19933;-72
2022/07/19 15:33:29;;;;;;;7.13;1.90;;;54.10;31.20;;;;;;4966228;29;20221;-72
2022/07/19 15:35:55;;;;;;;4.93;2.08;;;52.90;30.90;;;;;;4972789;28;20038;-71
2022/07/19 15:38:21;;;;;;;4.68;2.15;;;51.80;31.50;;;;;;4968634;28;20039;-73
2022/07/19 15:40:46;;;;;;;5.13;1.50;;;52.30;31.60;;;;;;4967890;28;20066;-73
2022/07/19 15:43:12;;;;;;;3.58;1.67;;;53.50;31.40;;;;;;4985697;28;20053;-73
2022/07/19 15:45:38;;;;;;;2.70;1.60;;;53.20;31.50;;;;;;4984361;28;20139;-73
2022/07/19 15:48:04;;;;;;;3.95;2.05;;;53.10;31.60;;;;;;4968217;28;20046;-73
2022/07/19 15:50:29;;;;;;;3.17;1.50;;;52.30;31.00;;;;;;4984804;28;20043;-72
2022/07/19 15:52:55;;;;;;;4.82;1.77;;;53.40;31.30;;;;;;4985273;28;20042;-73
2022/07/19 15:55:23;;;;;;;3.92;1.85;;;53.70;31.10;;;;;;4985544;28;20098;-72
2022/07/19 15:57:48;;;;;;;3.55;1.60;;;53.90;31.10;;;;;;4974473;28;20098;-73
2022/07/19 16:00:14;;;;;;;3.38;1.80;;;55.00;30.90;;;;;;4965568;29;20027;-74
2022/07/19 16:02:40;;;;;;;5.20;1.85;;;55.60;30.90;;;;;;4937796;29;20055;-73
2022/07/19 16:05:08;;;;;;;4.20;1.70;;;55.20;30.90;;;;;;4946535;29;20042;-73
2022/07/19 16:07:34;;;;;;;3.40;1.80;;;54.40;31.00;;;;;;4946195;29;20040;-73
2022/07/19 16:09:59;;;;;;;2.45;1.42;;;54.20;30.70;;;;;;4946103;29;20063;-72
2022/07/19 16:12:25;;;;;;;3.53;1.65;;;53.90;30.90;;;;;;4946414;29;20062;-72
2022/07/19 16:14:54;;;;;;;3.15;1.50;;;54.50;31.00;;;;;;4946407;29;20087;-73
2022/07/19 16:17:21;;;;;;;4.07;1.50;;;55.20;30.90;;;;;;4945734;29;20039;-72
2022/07/19 16:19:47;;;;;;;4.80;1.60;;;55.30;30.90;;;;;;4945552;29;20091;-73
2022/07/19 16:22:12;;;;;;;3.45;1.50;;;54.20;30.50;;;;;;4946098;29;20058;-72
2022/07/19 16:24:38;;;;;;;2.67;1.50;;;53.30;30.60;;;;;;4946077;29;20035;-73
2022/07/19 16:27:04;;;;;;;4.90;1.67;;;51.90;30.90;;;;;;4946055;29;20031;-72
2022/07/19 16:29:29;;;;;;;2.38;1.67;;;51.30;31.10;;;;;;4945538;29;20432;-74
2022/07/19 16:31:57;;;;;;;3.30;1.73;;;52.50;31.40;;;;;;4944434;29;20047;-73
2022/07/19 16:34:22;;;;;;;4.25;1.50;;;53.10;31.40;;;;;;4945778;29;20749;-72
2022/07/19 16:36:49;;;;;;;3.53;1.48;;;53.20;31.20;;;;;;4958593;29;20106;-72
2022/07/19 16:39:15;;;;;;;3.45;1.50;;;53.30;31.20;;;;;;4965377;29;20046;-73
2022/07/19 16:41:41;;;;;;;4.40;1.33;;;53.40;31.30;;;;;;4964901;29;20090;-73
2022/07/19 16:44:07;;;;;;;2.72;1.40;;;53.50;30.80;;;;;;4965179;29;20019;-73
2022/07/19 16:46:35;;;;;;;3.45;1.73;;;53.30;31.30;;;;;;4963806;29;20240;-73
2022/07/19 16:49:02;;;;;;;6.40;1.67;;;54.20;31.30;;;;;;4964579;29;20058;-73
2022/07/19 16:51:29;;;;;;;3.83;1.30;;;53.70;30.60;;;;;;4964648;29;20023;-72
2022/07/19 16:53:55;;;;;;;3.42;1.40;;;53.20;30.90;;;;;;4964667;29;20027;-73
2022/07/19 16:56:20;;;;;;;3.23;1.40;;;51.10;31.20;;;;;;4947777;29;20077;-72
2022/07/19 16:58:47;;;;;;;4.60;1.53;;;49.30;32.10;;;;;;4945475;29;20515;-75
2022/07/19 17:01:12;;;;;;;3.63;1.42;;;48.10;32.40;;;;;;4944706;29;20078;-71
2022/07/19 17:03:38;;;;;;;3.78;1.75;;;46.10;33.30;;;;;;4962750;29;20054;-73
2022/07/19 17:06:04;;;;;;;3.47;1.60;;;44.70;33.50;;;;;;4964500;29;20317;-72
2022/07/19 17:08:30;;;;;;;7.60;1.63;;;43.00;34.30;;;;;;4963623;29;20094;-74
2022/07/19 17:10:56;;;;;;;5.25;1.73;;;41.90;35.00;;;;;;4964639;29;20336;-72
2022/07/19 17:13:23;;;;;;;4.00;1.92;;;41.70;35.70;;;;;;4964601;29;20040;-73
2022/07/19 17:15:48;;;;;;;3.28;1.90;;;41.40;35.80;;;;;;4963100;28;20110;-74
2022/07/19 17:18:14;;;;;;;3.40;1.90;;;41.60;35.30;;;;;;4964704;29;20038;-73
2022/07/19 17:20:40;;;;;;;4.43;2.15;;;42.00;35.80;;;;;;4963810;29;20217;-74
2022/07/19 17:23:06;;;;;;;6.13;2.00;;;43.50;34.80;;;;;;4964396;29;20033;-74
2022/07/19 17:25:32;;;;;;;4.88;2.00;;;45.00;34.50;;;;;;4963831;29;20253;-74
2022/07/19 17:27:58;;;;;;;3.67;1.70;;;46.00;33.80;;;;;;4964133;29;20294;-74
2022/07/19 17:30:24;;;;;;;4.40;2.17;;;47.00;33.50;;;;;;4963506;29;20129;-73
2022/07/19 17:32:50;;;;;;;3.83;1.85;;;47.40;33.30;;;;;;4963472;29;20039;-73
2022/07/19 17:35:16;;;;;;;2.80;1.77;;;47.40;32.90;;;;;;4965350;28;20027;-72
2022/07/19 17:37:42;;;;;;;3.95;1.60;;;47.70;32.70;;;;;;4983087;28;20038;-74
2022/07/19 17:40:08;;;;;;;3.63;2.10;;;47.70;32.80;;;;;;4983121;28;20035;-72
2022/07/19 17:42:40;;;;;;;5.13;2.30;;;47.20;32.80;;;;;;4983126;28;20045;-73
2022/07/19 17:45:07;;;;;;;4.72;2.30;;;47.10;33.00;;;;;;4982390;28;20030;-73
2022/07/19 17:47:33;;;;;;;4.65;2.30;;;47.20;33.10;;;;;;4982299;28;20030;-72
2022/07/19 17:49:59;;;;;;;6.97;2.42;;;47.60;33.00;;;;;;4965922;28;20031;-74
2022/07/19 17:52:25;;;;;;;3.53;2.33;;;47.80;33.00;;;;;;4983348;28;20030;-73
2022/07/19 17:54:50;;;;;;;5.38;2.50;;;48.00;33.00;;;;;;4982800;28;20457;-73
2022/07/19 17:57:19;;;;;;;6.15;2.60;;;48.00;33.00;;;;;;4976762;28;20066;-74
2022/07/19 17:59:45;;;;;;;4.85;2.47;;;47.90;32.80;;;;;;4963524;29;20050;-75
2022/07/19 18:02:11;;;;;;;6.55;2.38;;;47.60;32.90;;;;;;4962719;29;20055;-74
2022/07/19 18:04:40;;;;;;;6.57;2.60;;;47.10;32.80;;;;;;4946398;29;20095;-73